createdAt,value
2022-10-08T00:01:30.573Z,12.00
2022-10-08T00:03:35.078Z,12.20
2022-10-08T00:05:36.690Z,12.93
2022-10-08T00:07:38.512Z,13.13
2022-10-08T00:09:40.203Z,12.97
2022-10-08T00:11:42.710Z,12.13
2022-10-08T00:13:47.889Z,12.37
2022-10-08T00:15:50.779Z,14.13
2022-10-08T00:17:52.829Z,14.43
2022-10-08T00:19:54.450Z,13.00
2022-10-08T00:21:57.070Z,14.77
2022-10-08T00:24:01.294Z,15.80
2022-10-08T00:26:06.119Z,14.43
2022-10-08T00:28:11.566Z,14.60
2022-10-08T00:30:13.563Z,16.17
2022-10-08T00:32:15.276Z,15.20
2022-10-08T00:34:21.016Z,13.60
2022-10-08T00:36:25.080Z,14.20
2022-10-08T00:38:26.826Z,14.47
2022-10-08T00:40:28.590Z,14.40
2022-10-08T00:42:30.456Z,14.57
2022-10-08T00:44:47.145Z,13.40
2022-10-08T00:46:50.969Z,13.37
2022-10-08T00:49:00.111Z,14.00
2022-10-08T00:51:02.430Z,13.17
2022-10-08T00:53:07.763Z,12.93
2022-10-08T00:55:11.694Z,12.40
2022-10-08T00:57:13.397Z,12.50
2022-10-08T00:59:15.840Z,13.47
2022-10-08T01:01:17.754Z,12.70
2022-10-08T01:03:19.429Z,12.13
2022-10-08T01:05:34.384Z,13.20
2022-10-08T01:08:05.443Z,13.33
2022-10-08T01:10:12.201Z,12.03
2022-10-08T01:12:37.933Z,12.40
2022-10-08T01:15:07.851Z,12.53
2022-10-08T01:17:17.213Z,12.67
2022-10-08T01:19:31.184Z,14.13
2022-10-08T01:21:54.336Z,15.10
2022-10-08T01:24:13.133Z,14.60
2022-10-08T01:26:52.463Z,13.70
2022-10-08T01:29:16.366Z,15.13
2022-10-08T01:31:22.891Z,16.20
2022-10-08T01:33:29.714Z,16.97
2022-10-08T01:35:33.606Z,16.17
2022-10-08T01:37:39.111Z,17.87
2022-10-08T01:39:44.219Z,16.47
2022-10-08T01:41:52.038Z,17.17
2022-10-08T01:44:01.803Z,17.50
2022-10-08T01:46:14.464Z,19.00
2022-10-08T01:48:23.329Z,17.47
2022-10-08T01:50:28.198Z,18.07
2022-10-08T01:52:39.534Z,19.10
2022-10-08T01:54:45.117Z,19.97
2022-10-08T01:56:49.309Z,18.20
2022-10-08T01:58:59.634Z,16.40
2022-10-08T02:01:08.267Z,17.97
2022-10-08T02:03:13.117Z,18.00
2022-10-08T02:05:14.856Z,18.00
2022-10-08T02:07:18.334Z,18.20
2022-10-08T02:09:20.251Z,17.50
2022-10-08T02:11:21.923Z,18.50
2022-10-08T02:13:23.761Z,17.60
2022-10-08T02:15:52.399Z,18.00
2022-10-08T02:18:12.918Z,17.23
2022-10-08T02:20:28.262Z,17.17
2022-10-08T02:22:35.890Z,18.03
2022-10-08T02:24:44.724Z,17.30
2022-10-08T02:26:53.418Z,17.00
2022-10-08T02:29:10.924Z,16.07
2022-10-08T02:31:24.418Z,15.97
2022-10-08T02:33:33.092Z,14.00
2022-10-08T02:35:55.896Z,14.77
2022-10-08T02:38:06.318Z,17.20
2022-10-08T02:40:11.078Z,15.07
2022-10-08T02:42:17.647Z,14.30
2022-10-08T02:44:26.429Z,14.23
2022-10-08T02:46:32.864Z,14.47
2022-10-08T02:48:36.550Z,14.40
2022-10-08T02:50:41.962Z,15.73
2022-10-08T02:52:45.626Z,15.43
2022-10-08T02:54:50.486Z,15.20
2022-10-08T02:56:58.823Z,13.77
2022-10-08T02:59:00.981Z,15.10
2022-10-08T03:01:35.692Z,13.83
2022-10-08T03:04:03.404Z,15.20
2022-10-08T03:06:09.194Z,15.10
2022-10-08T03:08:14.425Z,14.63
2022-10-08T03:10:16.469Z,15.00
2022-10-08T03:12:18.866Z,14.07
2022-10-08T03:14:22.306Z,13.67
2022-10-08T03:16:32.104Z,13.30
2022-10-08T03:18:33.930Z,14.40
2022-10-08T03:20:45.595Z,13.97
2022-10-08T03:22:47.569Z,12.47
2022-10-08T03:24:51.775Z,13.63
2022-10-08T03:26:55.757Z,13.37
2022-10-08T03:28:57.401Z,11.40
2022-10-08T03:31:03.348Z,12.47
2022-10-08T03:33:05.082Z,12.63
2022-10-08T03:35:06.945Z,12.07
2022-10-08T03:37:08.625Z,12.87
2022-10-08T03:39:11.556Z,12.20
2022-10-08T03:41:13.332Z,12.13
2022-10-08T03:43:15.057Z,12.83
2022-10-08T03:45:16.720Z,12.00
2022-10-08T03:47:18.374Z,11.77
2022-10-08T03:49:20.022Z,11.50
2022-10-08T03:51:21.752Z,11.97
2022-10-08T03:53:24.332Z,11.40
2022-10-08T03:55:25.993Z,12.07
2022-10-08T03:57:27.739Z,11.70
2022-10-08T03:59:29.406Z,11.30
2022-10-08T04:01:31.105Z,12.53
2022-10-08T04:03:33.709Z,11.33
2022-10-08T04:05:35.712Z,12.40
2022-10-08T04:07:37.381Z,11.90
2022-10-08T04:09:39.069Z,12.47
2022-10-08T04:11:40.882Z,11.60
2022-10-08T04:13:44.040Z,12.47
2022-10-08T04:15:50.942Z,12.33
2022-10-08T04:17:52.642Z,12.70
2022-10-08T04:19:54.276Z,10.90
2022-10-08T04:21:55.930Z,12.43
2022-10-08T04:23:57.850Z,11.17
2022-10-08T04:25:59.602Z,11.13
2022-10-08T04:28:01.545Z,11.20
2022-10-08T04:30:03.641Z,11.77
2022-10-08T04:32:05.336Z,12.63
2022-10-08T04:34:07.031Z,11.47
2022-10-08T04:36:10.405Z,12.77
2022-10-08T04:38:12.074Z,11.90
2022-10-08T04:40:13.743Z,11.70
2022-10-08T04:42:15.517Z,12.90
2022-10-08T04:44:17.166Z,12.93
2022-10-08T04:46:21.660Z,12.63
2022-10-08T04:48:23.456Z,12.90
2022-10-08T04:50:25.249Z,12.30
2022-10-08T04:52:26.845Z,13.03
2022-10-08T04:54:28.465Z,15.33
2022-10-08T04:56:31.997Z,16.33
2022-10-08T04:58:33.738Z,16.10
2022-10-08T05:00:36.077Z,16.10
2022-10-08T05:02:37.741Z,16.33
2022-10-08T05:04:39.508Z,18.27
2022-10-08T05:06:41.149Z,15.87
2022-10-08T05:08:43.908Z,17.70
2022-10-08T05:10:49.462Z,17.77
2022-10-08T05:12:51.367Z,17.70
2022-10-08T05:14:53.032Z,18.33
2022-10-08T05:16:54.650Z,17.57
2022-10-08T05:18:57.320Z,18.10
2022-10-08T05:21:06.292Z,17.33
2022-10-08T05:23:08.010Z,18.57
2022-10-08T05:25:10.071Z,17.60
2022-10-08T05:27:11.773Z,18.37
2022-10-08T05:29:13.406Z,17.77
2022-10-08T05:31:16.775Z,18.10
2022-10-08T05:33:18.417Z,17.73
2022-10-08T05:35:20.470Z,20.20
2022-10-08T05:37:22.179Z,20.03
2022-10-08T05:39:23.940Z,20.30
2022-10-08T05:41:28.126Z,22.77
2022-10-08T05:43:29.738Z,22.13
2022-10-08T05:45:31.334Z,19.83
2022-10-08T05:47:32.968Z,22.40
2022-10-08T05:49:34.590Z,21.90
2022-10-08T05:51:38.546Z,22.17
2022-10-08T05:53:42.547Z,23.67
2022-10-08T05:55:44.153Z,22.10
2022-10-08T05:57:45.770Z,21.53
2022-10-08T05:59:47.447Z,19.60
2022-10-08T06:01:50.041Z,20.30
2022-10-08T06:03:57.969Z,19.53
2022-10-08T06:06:04.258Z,18.17
2022-10-08T06:08:05.870Z,17.90
2022-10-08T06:10:07.996Z,16.53
2022-10-08T06:12:09.953Z,17.77
2022-10-08T06:14:13.492Z,17.33
2022-10-08T06:16:15.409Z,18.27
2022-10-08T06:18:17.254Z,18.10
2022-10-08T06:20:18.978Z,18.63
2022-10-08T06:22:20.645Z,17.23
2022-10-08T06:24:22.369Z,17.47
2022-10-08T06:26:27.914Z,17.57
2022-10-08T06:28:33.407Z,16.40
2022-10-08T06:30:35.185Z,16.20
2022-10-08T06:32:36.868Z,15.70
2022-10-08T06:34:38.527Z,15.60
2022-10-08T06:36:40.207Z,16.13
2022-10-08T06:38:42.565Z,17.30
2022-10-08T06:40:44.393Z,17.33
2022-10-08T06:42:46.399Z,14.90
2022-10-08T06:44:48.285Z,16.20
2022-10-08T06:46:50.201Z,15.40
2022-10-08T06:48:51.907Z,15.63
2022-10-08T06:51:07.350Z,14.50
2022-10-08T06:53:10.310Z,11.60
2022-10-08T06:55:11.953Z,12.60
2022-10-08T06:57:13.699Z,11.53
2022-10-08T06:59:15.326Z,11.60
2022-10-08T07:01:22.394Z,9.60
2022-10-08T07:03:24.076Z,8.93
2022-10-08T07:05:25.722Z,9.03
2022-10-08T07:07:27.321Z,8.70
2022-10-08T07:09:29.317Z,8.30
2022-10-08T07:11:33.313Z,7.93
2022-10-08T07:13:35.898Z,7.90
2022-10-08T07:15:37.550Z,7.93
2022-10-08T07:17:39.203Z,7.30
2022-10-08T07:19:40.836Z,8.57
2022-10-08T07:21:42.466Z,8.73
2022-10-08T07:23:44.601Z,7.90
2022-10-08T07:25:58.756Z,7.23
2022-10-08T07:28:00.407Z,7.60
2022-10-08T07:30:02.084Z,6.87
2022-10-08T07:32:03.786Z,7.40
2022-10-08T07:34:11.082Z,7.50
2022-10-08T07:36:15.473Z,7.10
2022-10-08T07:38:19.837Z,6.70
2022-10-08T07:40:21.457Z,5.90
2022-10-08T07:42:23.110Z,6.07
2022-10-08T07:44:24.821Z,5.80
2022-10-08T07:46:27.786Z,5.67
2022-10-08T07:48:33.906Z,5.50
2022-10-08T07:50:35.961Z,4.20
2022-10-08T07:52:38.013Z,4.50
2022-10-08T07:54:40.748Z,4.67
2022-10-08T07:56:43.005Z,4.87
2022-10-08T07:58:45.420Z,4.27
2022-10-08T08:00:47.067Z,3.80
2022-10-08T08:02:49.607Z,4.47
2022-10-08T08:04:51.847Z,4.17
2022-10-08T08:06:53.743Z,3.90
2022-10-08T08:08:56.855Z,4.67
2022-10-08T08:11:01.118Z,3.50
2022-10-08T08:13:02.890Z,4.00
2022-10-08T08:15:04.842Z,4.50
2022-10-08T08:17:07.234Z,3.87
2022-10-08T08:19:08.908Z,4.13
2022-10-08T08:21:16.790Z,4.30
2022-10-08T08:23:19.060Z,5.17
2022-10-08T08:25:20.792Z,4.73
2022-10-08T08:27:22.423Z,4.73
2022-10-08T08:29:24.334Z,5.30
2022-10-08T08:31:29.190Z,4.60
2022-10-08T08:33:32.178Z,4.83
2022-10-08T08:35:33.977Z,4.10
2022-10-08T08:37:35.863Z,4.03
2022-10-08T08:39:37.750Z,4.40
2022-10-08T08:41:56.448Z,4.07
2022-10-08T08:44:03.185Z,4.37
2022-10-08T08:46:05.918Z,4.50
2022-10-08T08:48:23.987Z,4.90
2022-10-08T08:50:29.777Z,3.63
2022-10-08T08:52:38.087Z,5.00
2022-10-08T08:54:40.050Z,3.37
2022-10-08T08:56:42.102Z,3.50
2022-10-08T08:58:59.740Z,3.67
2022-10-08T09:01:28.150Z,3.90
2022-10-08T09:03:39.568Z,4.70
2022-10-08T09:05:44.932Z,3.67
2022-10-08T09:07:53.446Z,3.83
2022-10-08T09:09:58.656Z,3.40
2022-10-08T09:12:02.959Z,3.70
2022-10-08T09:14:42.234Z,3.50
2022-10-08T09:16:44.675Z,3.47
2022-10-08T09:18:48.906Z,3.23
2022-10-08T09:20:50.762Z,2.83
2022-10-08T09:22:54.107Z,3.60
2022-10-08T09:25:19.535Z,3.10
2022-10-08T09:27:21.351Z,3.10
2022-10-08T09:29:34.184Z,3.83
2022-10-08T09:31:44.584Z,2.90
2022-10-08T09:33:53.046Z,3.23
2022-10-08T09:35:55.137Z,4.40
2022-10-08T09:37:58.249Z,3.07
2022-10-08T09:40:13.958Z,4.23
2022-10-08T09:42:18.725Z,3.60
2022-10-08T09:44:23.455Z,3.27
2022-10-08T09:46:31.690Z,3.50
2022-10-08T09:48:33.983Z,3.83
2022-10-08T09:50:38.011Z,3.20
2022-10-08T09:52:41.061Z,4.50
2022-10-08T09:55:05.250Z,3.70
2022-10-08T09:57:07.459Z,3.77
2022-10-08T09:59:19.253Z,4.10
2022-10-08T10:01:21.496Z,3.60
2022-10-08T10:03:24.816Z,3.30
2022-10-08T10:05:29.297Z,4.10
2022-10-08T10:07:41.872Z,3.30
2022-10-08T10:09:56.536Z,2.80
2022-10-08T10:12:07.854Z,3.23
2022-10-08T10:14:40.066Z,2.73
2022-10-08T10:16:45.450Z,3.13
2022-10-08T10:18:50.158Z,3.20
2022-10-08T10:21:00.366Z,3.00
2022-10-08T10:23:10.852Z,3.87
2022-10-08T10:25:39.910Z,2.83
2022-10-08T10:27:49.793Z,2.80
2022-10-08T10:30:10.622Z,3.33
2022-10-08T10:32:21.327Z,2.40
2022-10-08T10:34:29.945Z,2.77
2022-10-08T10:36:37.490Z,2.83
2022-10-08T10:39:23.484Z,3.07
2022-10-08T10:41:59.364Z,3.20
2022-10-08T10:44:07.315Z,3.60
2022-10-08T10:46:23.608Z,3.00
2022-10-08T10:48:25.973Z,2.90
2022-10-08T10:51:00.580Z,2.40
2022-10-08T10:53:40.238Z,2.60
2022-10-08T10:56:14.198Z,2.90
2022-10-08T10:58:37.977Z,2.60
2022-10-08T11:00:47.675Z,3.00
2022-10-08T11:03:10.498Z,2.50
2022-10-08T11:05:20.511Z,3.07
2022-10-08T11:07:49.977Z,3.10
2022-10-08T11:10:33.641Z,2.53
2022-10-08T11:13:07.712Z,3.20
2022-10-08T11:15:09.883Z,2.80
2022-10-08T11:17:37.205Z,2.67
2022-10-08T11:19:52.973Z,2.70
2022-10-08T11:22:12.871Z,2.47
2022-10-08T11:24:39.879Z,3.40
2022-10-08T11:27:11.764Z,2.47
2022-10-08T11:29:26.363Z,2.80
2022-10-08T11:31:28.429Z,2.80
2022-10-08T11:33:31.982Z,2.57
2022-10-08T11:35:43.631Z,2.60
2022-10-08T11:38:16.500Z,2.70
2022-10-08T11:40:44.243Z,2.50
2022-10-08T11:43:02.559Z,2.37
2022-10-08T11:45:40.481Z,2.90
2022-10-08T11:47:43.617Z,2.57
2022-10-08T11:49:55.057Z,2.43
2022-10-08T11:51:57.527Z,2.50
2022-10-08T11:54:26.934Z,2.53
2022-10-08T11:56:29.377Z,2.17
2022-10-08T11:58:35.471Z,2.10
2022-10-08T12:00:45.270Z,2.57
2022-10-08T12:02:53.705Z,2.63
2022-10-08T12:05:16.174Z,2.07
2022-10-08T12:07:33.687Z,2.43
2022-10-08T12:10:23.791Z,2.43
2022-10-08T12:12:26.262Z,2.70
2022-10-08T12:14:31.596Z,2.10
2022-10-08T12:16:48.440Z,2.43
2022-10-08T12:18:50.427Z,2.80
2022-10-08T12:21:18.148Z,3.13
2022-10-08T12:23:23.375Z,2.90
2022-10-08T12:26:09.713Z,2.67
2022-10-08T12:28:38.513Z,2.53
2022-10-08T12:30:58.854Z,2.83
2022-10-08T12:33:00.854Z,2.57
2022-10-08T12:35:03.287Z,2.90
2022-10-08T12:37:18.833Z,3.17
2022-10-08T12:39:40.828Z,2.60
2022-10-08T12:42:01.651Z,2.90
2022-10-08T12:44:31.734Z,2.27
2022-10-08T12:46:54.772Z,1.70
2022-10-08T12:49:24.797Z,2.50
2022-10-08T12:51:29.556Z,2.93
2022-10-08T12:53:32.481Z,2.30
2022-10-08T12:55:44.636Z,2.40
2022-10-08T12:57:50.443Z,2.30
2022-10-08T12:59:53.705Z,2.57
2022-10-08T13:01:55.795Z,3.10
2022-10-08T13:04:23.776Z,2.30
2022-10-08T13:06:31.743Z,2.27
2022-10-08T13:08:39.857Z,2.10
2022-10-08T13:10:43.444Z,2.00
2022-10-08T13:13:18.602Z,2.47
2022-10-08T13:15:24.085Z,2.50
2022-10-08T13:17:31.357Z,2.47
2022-10-08T13:19:38.200Z,1.90
2022-10-08T13:21:40.002Z,2.10
2022-10-08T13:23:41.686Z,1.60
2022-10-08T13:25:43.343Z,1.80
2022-10-08T13:27:45.473Z,2.50
2022-10-08T13:29:47.309Z,2.63
2022-10-08T13:32:11.069Z,2.07
2022-10-08T13:34:18.122Z,2.30
2022-10-08T13:36:23.284Z,2.50
2022-10-08T13:38:30.699Z,2.17
2022-10-08T13:40:32.478Z,2.20
2022-10-08T13:42:39.923Z,2.57
2022-10-08T13:44:43.021Z,2.13
2022-10-08T13:46:44.902Z,1.67
2022-10-08T13:48:46.606Z,2.07
2022-10-08T13:50:52.305Z,2.10
2022-10-08T13:52:57.181Z,2.00
2022-10-08T13:55:05.756Z,2.43
2022-10-08T13:57:07.422Z,2.13
2022-10-08T13:59:10.682Z,1.70
2022-10-08T14:01:12.356Z,1.60
2022-10-08T14:03:14.217Z,2.33
2022-10-08T14:05:15.864Z,1.50
2022-10-08T14:07:32.985Z,1.47
2022-10-08T14:09:34.940Z,1.80
2022-10-08T14:11:37.701Z,1.70
2022-10-08T14:13:39.747Z,1.90
2022-10-08T14:15:42.091Z,1.90
2022-10-08T14:17:44.104Z,1.70
2022-10-08T14:19:46.221Z,2.00
2022-10-08T14:21:50.007Z,1.70
2022-10-08T14:23:51.645Z,2.03
2022-10-08T14:25:53.657Z,1.83
2022-10-08T14:27:55.377Z,1.90
2022-10-08T14:29:57.089Z,1.60
2022-10-08T14:31:59.721Z,1.87
2022-10-08T14:34:01.370Z,2.00
2022-10-08T14:36:06.618Z,1.83
2022-10-08T14:38:09.225Z,1.63
2022-10-08T14:40:16.190Z,2.10
2022-10-08T14:42:18.033Z,2.37
2022-10-08T14:44:22.346Z,2.20
2022-10-08T14:46:24.510Z,2.23
2022-10-08T14:48:26.134Z,1.90
2022-10-08T14:50:28.058Z,1.80
2022-10-08T14:52:29.674Z,1.43
2022-10-08T14:54:31.334Z,2.03
2022-10-08T14:56:33.367Z,1.50
2022-10-08T14:58:35.114Z,1.70
2022-10-08T15:00:36.733Z,2.03
2022-10-08T15:02:38.653Z,1.50
2022-10-08T15:04:40.326Z,1.83
2022-10-08T15:06:42.759Z,1.77
2022-10-08T15:08:44.476Z,1.63
2022-10-08T15:10:46.786Z,1.47
2022-10-08T15:12:48.811Z,2.00
2022-10-08T15:14:50.697Z,1.60
2022-10-08T15:16:52.369Z,1.40
2022-10-08T15:18:54.137Z,1.60
2022-10-08T15:20:57.990Z,1.83
2022-10-08T15:22:59.841Z,1.60
2022-10-08T15:25:01.434Z,1.80
2022-10-08T15:27:03.181Z,1.93
2022-10-08T15:29:04.967Z,1.90
2022-10-08T15:31:11.224Z,1.97
2022-10-08T15:33:12.833Z,1.90
2022-10-08T15:35:14.807Z,22.40
2022-10-08T15:37:16.438Z,3.23
2022-10-08T15:39:19.175Z,1.73
2022-10-08T15:41:20.831Z,2.47
2022-10-08T15:43:32.284Z,1.60
2022-10-08T15:45:42.520Z,2.47
2022-10-08T15:47:44.244Z,1.30
2022-10-08T15:49:46.148Z,1.90
2022-10-08T15:51:47.800Z,1.80
2022-10-08T15:53:50.115Z,1.50
2022-10-08T15:55:58.242Z,1.97
2022-10-08T15:57:59.914Z,1.47
2022-10-08T16:00:01.554Z,2.00
2022-10-08T16:02:04.379Z,1.93
2022-10-08T16:04:06.108Z,1.90
2022-10-08T16:06:09.696Z,1.90
2022-10-08T16:08:11.518Z,3.00
2022-10-08T16:10:13.120Z,2.20
2022-10-08T16:12:14.923Z,2.00
2022-10-08T16:14:24.808Z,2.30
2022-10-08T16:16:26.618Z,1.60
2022-10-08T16:18:28.587Z,1.67
2022-10-08T16:20:30.208Z,1.37
2022-10-08T16:22:31.824Z,1.43
2022-10-08T16:24:33.717Z,1.87
2022-10-08T16:26:37.158Z,1.60
2022-10-08T16:28:40.646Z,1.57
2022-10-08T16:30:42.610Z,1.30
2022-10-08T16:32:44.285Z,1.83
2022-10-08T16:34:53.272Z,2.10
2022-10-08T16:36:55.296Z,2.00
2022-10-08T16:38:58.155Z,1.80
2022-10-08T16:41:15.028Z,1.80
2022-10-08T16:43:16.659Z,1.60
2022-10-08T16:45:18.314Z,2.30
2022-10-08T16:47:19.918Z,2.40
2022-10-08T16:49:29.023Z,2.00
2022-10-08T16:51:33.981Z,2.57
2022-10-08T16:53:35.918Z,4.20
2022-10-08T16:55:38.734Z,4.50
2022-10-08T16:57:40.346Z,3.70
2022-10-08T16:59:41.953Z,2.50
2022-10-08T17:01:46.326Z,2.73
2022-10-08T17:03:49.073Z,2.40
2022-10-08T17:05:50.685Z,1.80
2022-10-08T17:07:52.365Z,2.80
2022-10-08T17:09:54.000Z,2.90
2022-10-08T17:11:55.655Z,2.30
2022-10-08T17:13:58.549Z,2.53
2022-10-08T17:16:07.298Z,2.60
2022-10-08T17:18:08.953Z,2.57
2022-10-08T17:20:11.139Z,2.70
2022-10-08T17:22:16.358Z,2.60
2022-10-08T17:24:18.221Z,2.70
2022-10-08T17:26:22.235Z,4.00
2022-10-08T17:28:29.767Z,2.53
2022-10-08T17:30:31.871Z,5.03
2022-10-08T17:32:33.605Z,5.27
2022-10-08T17:34:35.231Z,9.23
2022-10-08T17:36:41.082Z,7.00
2022-10-08T17:38:44.292Z,9.93
2022-10-08T17:40:45.994Z,5.23
2022-10-08T17:42:47.866Z,5.23
2022-10-08T17:44:49.747Z,3.80
2022-10-08T17:46:52.051Z,3.43
2022-10-08T17:48:55.246Z,3.40
2022-10-08T17:51:01.707Z,3.73
2022-10-08T17:53:03.427Z,3.70
2022-10-08T17:55:05.761Z,3.27
2022-10-08T17:57:07.368Z,4.57
2022-10-08T17:59:12.785Z,3.73
2022-10-08T18:01:18.240Z,5.57
2022-10-08T18:03:19.964Z,6.20
2022-10-08T18:05:21.751Z,5.53
2022-10-08T18:07:23.709Z,4.50
2022-10-08T18:09:25.506Z,3.57
2022-10-08T18:11:29.397Z,3.37
2022-10-08T18:13:32.029Z,3.53
2022-10-08T18:15:36.716Z,4.57
2022-10-08T18:17:38.536Z,3.40
2022-10-08T18:19:40.203Z,3.23
2022-10-08T18:21:41.868Z,2.77
2022-10-08T18:23:46.374Z,4.37
2022-10-08T18:25:52.926Z,2.67
2022-10-08T18:27:56.722Z,2.90
2022-10-08T18:29:58.345Z,2.30
2022-10-08T18:31:59.949Z,2.57
2022-10-08T18:34:06.794Z,3.30
2022-10-08T18:36:15.907Z,2.43
2022-10-08T18:38:17.521Z,2.40
2022-10-08T18:40:19.265Z,2.97
2022-10-08T18:42:20.932Z,2.63
2022-10-08T18:44:25.233Z,2.50
2022-10-08T18:46:28.157Z,2.70
2022-10-08T18:48:31.854Z,2.80
2022-10-08T18:50:33.582Z,2.80
2022-10-08T18:52:35.205Z,3.30
2022-10-08T18:54:36.934Z,3.20
2022-10-08T18:56:40.816Z,2.63
2022-10-08T18:58:42.869Z,2.37
2022-10-08T19:00:46.470Z,2.90
2022-10-08T19:02:48.516Z,3.43
2022-10-08T19:04:50.430Z,3.50
2022-10-08T19:06:55.544Z,2.57
2022-10-08T19:08:58.581Z,2.63
2022-10-08T19:11:09.038Z,3.67
2022-10-08T19:13:11.152Z,2.70
2022-10-08T19:15:12.850Z,2.80
2022-10-08T19:17:14.455Z,3.10
2022-10-08T19:19:24.650Z,3.40
2022-10-08T19:21:26.881Z,2.50
2022-10-08T19:23:28.878Z,2.40
2022-10-08T19:25:30.503Z,2.90
2022-10-08T19:27:32.161Z,2.70
2022-10-08T19:29:35.880Z,3.10
2022-10-08T19:31:37.564Z,2.90
2022-10-08T19:33:39.481Z,3.03
2022-10-08T19:35:41.736Z,3.00
2022-10-08T19:37:43.333Z,3.27
2022-10-08T19:39:47.351Z,3.53
2022-10-08T19:41:49.572Z,3.10
2022-10-08T19:43:52.095Z,3.20
2022-10-08T19:45:53.752Z,2.77
2022-10-08T19:47:55.587Z,3.43
2022-10-08T19:49:57.793Z,2.90
2022-10-08T19:51:59.417Z,3.07
2022-10-08T19:54:01.724Z,3.13
2022-10-08T19:56:05.472Z,2.70
2022-10-08T19:58:07.241Z,2.70
2022-10-08T20:00:09.541Z,2.60
2022-10-08T20:02:11.338Z,2.70
2022-10-08T20:04:14.028Z,2.80
2022-10-08T20:06:23.999Z,2.67
2022-10-08T20:08:25.858Z,2.87
2022-10-08T20:10:27.504Z,2.90
2022-10-08T20:12:29.200Z,2.43
2022-10-08T20:14:31.260Z,2.63
2022-10-08T20:16:35.903Z,2.27
2022-10-08T20:18:37.889Z,3.00
2022-10-08T20:20:39.485Z,2.80
2022-10-08T20:22:41.105Z,2.83
2022-10-08T20:24:42.781Z,2.90
2022-10-08T20:26:45.200Z,2.33
2022-10-08T20:28:52.197Z,3.00
2022-10-08T20:30:53.850Z,2.83
2022-10-08T20:32:55.556Z,2.70
2022-10-08T20:34:57.165Z,2.47
2022-10-08T20:37:01.500Z,2.33
2022-10-08T20:39:03.805Z,2.83
2022-10-08T20:41:06.198Z,2.70
2022-10-08T20:43:07.845Z,2.50
2022-10-08T20:45:12.116Z,3.00
2022-10-08T20:47:13.888Z,2.20
2022-10-08T20:49:15.566Z,3.20
2022-10-08T20:51:19.914Z,3.03
2022-10-08T20:53:21.530Z,3.50
2022-10-08T20:55:23.357Z,2.70
2022-10-08T20:57:25.156Z,3.30
2022-10-08T20:59:26.798Z,2.87
2022-10-08T21:01:34.284Z,3.20
2022-10-08T21:03:36.921Z,3.23
2022-10-08T21:05:41.139Z,2.50
2022-10-08T21:07:42.785Z,3.63
2022-10-08T21:09:44.468Z,2.80
2022-10-08T21:11:46.363Z,2.50
2022-10-08T21:13:48.759Z,3.17
2022-10-08T21:16:00.674Z,3.40
2022-10-08T21:18:02.437Z,2.80
2022-10-08T21:20:04.376Z,3.30
2022-10-08T21:22:07.743Z,2.77
2022-10-08T21:24:09.417Z,3.47
2022-10-08T21:26:27.100Z,2.93
2022-10-08T21:28:30.230Z,3.00
2022-10-08T21:30:31.938Z,2.93
2022-10-08T21:32:33.559Z,2.80
2022-10-08T21:34:35.362Z,2.83
2022-10-08T21:36:39.437Z,3.50
2022-10-08T21:38:41.451Z,3.20
2022-10-08T21:40:43.081Z,3.20
2022-10-08T21:42:44.714Z,2.97
2022-10-08T21:44:46.332Z,3.93
2022-10-08T21:46:47.981Z,3.23
2022-10-08T21:48:58.142Z,4.03
2022-10-08T21:51:06.103Z,4.10
2022-10-08T21:53:07.753Z,3.80
2022-10-08T21:55:09.409Z,3.40
2022-10-08T21:57:15.492Z,3.60
2022-10-08T21:59:17.913Z,3.70
2022-10-08T22:01:32.129Z,3.47
2022-10-08T22:03:34.318Z,3.47
2022-10-08T22:05:35.961Z,3.33
2022-10-08T22:07:37.556Z,3.47
2022-10-08T22:09:39.346Z,4.10
2022-10-08T22:11:41.359Z,3.53
2022-10-08T22:13:42.975Z,3.80
2022-10-08T22:15:59.224Z,3.70
2022-10-08T22:18:01.066Z,3.43
2022-10-08T22:20:02.864Z,3.80
2022-10-08T22:22:04.962Z,3.87
2022-10-08T22:24:07.485Z,3.60
2022-10-08T22:26:17.517Z,3.33
2022-10-08T22:28:19.275Z,3.97
2022-10-08T22:30:20.906Z,2.90
2022-10-08T22:32:22.562Z,3.60
2022-10-08T22:34:24.317Z,3.30
2022-10-08T22:36:29.174Z,3.37
2022-10-08T22:38:35.963Z,3.77
2022-10-08T22:40:37.846Z,3.37
2022-10-08T22:42:39.580Z,3.70
2022-10-08T22:44:41.337Z,3.70
2022-10-08T22:46:43.078Z,3.83
2022-10-08T22:48:45.606Z,3.70
2022-10-08T22:50:47.381Z,3.00
2022-10-08T22:52:50.152Z,3.90
2022-10-08T22:54:51.989Z,3.87
2022-10-08T22:56:53.607Z,4.07
2022-10-08T22:58:55.945Z,4.43
2022-10-08T23:01:08.700Z,3.30
2022-10-08T23:03:10.323Z,3.87
2022-10-08T23:05:12.048Z,4.80
2022-10-08T23:07:13.856Z,3.90
2022-10-08T23:09:15.474Z,4.70
2022-10-08T23:11:17.205Z,3.43
2022-10-08T23:13:18.789Z,3.80
2022-10-08T23:15:21.106Z,3.80
2022-10-08T23:17:22.709Z,3.43
2022-10-08T23:19:24.390Z,3.80
2022-10-08T23:21:27.095Z,5.00
2022-10-08T23:23:28.817Z,3.30
2022-10-08T23:25:30.424Z,3.63
2022-10-08T23:27:32.033Z,3.80
2022-10-08T23:29:33.691Z,3.67
2022-10-08T23:31:37.178Z,3.90
2022-10-08T23:33:42.272Z,3.50
2022-10-08T23:35:44.329Z,3.17
2022-10-08T23:37:47.425Z,2.93
2022-10-08T23:39:49.095Z,3.20
2022-10-08T23:41:50.695Z,3.63
2022-10-08T23:43:53.803Z,3.57
2022-10-08T23:45:56.640Z,4.10
2022-10-08T23:47:58.330Z,3.83
2022-10-08T23:49:59.968Z,3.73
2022-10-08T23:52:01.672Z,3.83
2022-10-08T23:54:03.412Z,3.80
2022-10-08T23:56:06.604Z,4.20
2022-10-08T23:58:08.422Z,4.30
